createdAt,value
2023-08-08T00:00:11.324Z,1.50
2023-08-08T00:02:41.448Z,1.50
2023-08-08T00:05:09.784Z,1.40
2023-08-08T00:07:37.206Z,1.15
2023-08-08T00:10:05.484Z,1.43
2023-08-08T00:12:32.897Z,1.47
2023-08-08T00:15:00.361Z,1.20
2023-08-08T00:17:28.691Z,1.30
2023-08-08T00:19:56.127Z,1.02
2023-08-08T00:22:23.584Z,1.13
2023-08-08T00:24:51.419Z,1.00
2023-08-08T00:27:19.098Z,1.17
2023-08-08T00:29:47.210Z,1.13
2023-08-08T00:32:15.006Z,1.25
2023-08-08T00:34:43.260Z,1.02
2023-08-08T00:37:10.616Z,1.33
2023-08-08T00:39:38.439Z,1.20
2023-08-08T00:42:06.061Z,1.40
2023-08-08T00:44:33.569Z,1.10
2023-08-08T00:47:01.617Z,1.27
2023-08-08T00:49:30.058Z,1.05
2023-08-08T00:51:58.664Z,1.10
2023-08-08T00:54:27.681Z,1.00
2023-08-08T00:56:55.067Z,1.40
2023-08-08T00:59:23.111Z,1.27
2023-08-08T01:04:19.525Z,1.27
2023-08-08T01:06:58.914Z,1.00
2023-08-08T01:09:35.304Z,1.00
2023-08-08T01:12:04.141Z,1.40
2023-08-08T01:14:33.967Z,1.48
2023-08-08T01:17:02.143Z,1.10
2023-08-08T01:19:31.819Z,1.20
2023-08-08T01:22:06.518Z,1.33
2023-08-08T01:24:38.176Z,1.37
2023-08-08T01:27:07.101Z,1.57
2023-08-08T01:29:34.597Z,1.52
2023-08-08T01:32:02.330Z,1.60
2023-08-08T01:34:31.126Z,1.65
2023-08-08T01:37:10.692Z,1.60
2023-08-08T01:39:40.166Z,1.60
2023-08-08T01:42:08.406Z,1.37
2023-08-08T01:44:36.623Z,1.65
2023-08-08T01:47:04.659Z,1.55
2023-08-08T01:49:32.443Z,1.37
2023-08-08T01:52:00.110Z,1.60
2023-08-08T01:54:28.217Z,1.73
2023-08-08T01:56:55.833Z,1.43
2023-08-08T01:59:25.434Z,1.40
2023-08-08T02:01:53.316Z,1.80
2023-08-08T02:04:21.617Z,1.63
2023-08-08T02:06:49.487Z,1.30
2023-08-08T02:09:17.477Z,1.37
2023-08-08T02:11:46.335Z,1.67
2023-08-08T02:14:14.143Z,1.90
2023-08-08T02:16:43.675Z,1.30
2023-08-08T02:19:11.793Z,1.77
2023-08-08T02:21:39.580Z,1.70
2023-08-08T02:24:07.281Z,1.83
2023-08-08T02:26:34.723Z,1.83
2023-08-08T02:29:02.463Z,1.97
2023-08-08T02:31:30.295Z,1.70
2023-08-08T02:33:58.063Z,1.90
2023-08-08T02:36:25.457Z,2.10
2023-08-08T02:38:54.781Z,2.20
2023-08-08T02:41:22.915Z,1.90
2023-08-08T02:43:51.236Z,1.77
2023-08-08T02:46:19.879Z,2.40
2023-08-08T02:48:47.552Z,2.10
2023-08-08T02:51:15.097Z,3.20
2023-08-08T02:53:42.913Z,2.57
2023-08-08T02:56:10.584Z,2.00
2023-08-08T02:58:39.297Z,1.70
2023-08-08T03:01:07.954Z,2.97
2023-08-08T03:03:36.412Z,2.50
2023-08-08T03:06:05.149Z,2.10
2023-08-08T03:08:34.800Z,2.63
2023-08-08T03:11:02.338Z,1.97
2023-08-08T03:13:30.033Z,2.07
2023-08-08T03:15:58.378Z,2.10
2023-08-08T03:18:27.299Z,2.40
2023-08-08T03:20:55.196Z,2.05
2023-08-08T03:23:24.631Z,2.65
2023-08-08T03:25:53.103Z,2.47
2023-08-08T03:28:21.246Z,2.55
2023-08-08T03:30:51.667Z,2.70
2023-08-08T03:33:19.297Z,2.53
2023-08-08T03:35:46.873Z,2.60
2023-08-08T03:38:15.572Z,2.78
2023-08-08T03:40:43.353Z,2.70
2023-08-08T03:43:11.674Z,2.90
2023-08-08T03:45:40.775Z,2.70
2023-08-08T03:48:08.746Z,3.20
2023-08-08T03:50:36.422Z,2.67
2023-08-08T03:53:06.153Z,3.10
2023-08-08T03:58:03.634Z,2.57
2023-08-08T04:00:31.885Z,2.75
2023-08-08T04:03:00.361Z,2.93
2023-08-08T04:05:28.676Z,2.73
2023-08-08T04:07:56.182Z,3.10
2023-08-08T04:10:23.702Z,2.63
2023-08-08T04:12:51.893Z,3.23
2023-08-08T04:15:19.436Z,3.07
2023-08-08T04:17:47.139Z,3.00
2023-08-08T04:20:15.605Z,2.58
2023-08-08T04:22:46.546Z,2.63
2023-08-08T04:25:14.247Z,2.73
2023-08-08T04:27:43.188Z,3.17
2023-08-08T04:30:11.173Z,2.70
2023-08-08T04:32:39.035Z,3.12
2023-08-08T04:35:07.561Z,3.08
2023-08-08T04:37:35.538Z,3.03
2023-08-08T04:40:03.813Z,3.50
2023-08-08T04:42:32.070Z,2.80
2023-08-08T04:44:59.461Z,2.40
2023-08-08T04:47:27.091Z,3.27
2023-08-08T04:49:55.385Z,2.53
2023-08-08T04:52:23.413Z,3.43
2023-08-08T04:54:51.069Z,3.27
2023-08-08T04:57:19.120Z,2.80
2023-08-08T04:59:50.682Z,3.40
2023-08-08T05:02:18.276Z,2.90
2023-08-08T05:04:46.882Z,3.20
2023-08-08T05:07:14.513Z,2.80
2023-08-08T05:09:42.588Z,2.60
2023-08-08T05:12:11.214Z,3.58
2023-08-08T05:14:38.772Z,3.00
2023-08-08T05:17:06.585Z,3.23
2023-08-08T05:19:34.793Z,3.00
2023-08-08T05:22:02.874Z,3.17
2023-08-08T05:24:30.987Z,2.92
2023-08-08T05:26:59.344Z,2.90
2023-08-08T05:29:27.185Z,2.67
2023-08-08T05:31:54.749Z,2.50
2023-08-08T05:34:25.700Z,2.72
2023-08-08T05:37:10.059Z,2.40
2023-08-08T05:39:42.747Z,2.10
2023-08-08T05:42:10.570Z,3.20
2023-08-08T05:44:38.105Z,3.90
2023-08-08T05:47:06.489Z,2.93
2023-08-08T05:49:34.103Z,2.93
2023-08-08T05:52:02.649Z,3.07
2023-08-08T05:54:31.610Z,2.93
2023-08-08T05:56:59.062Z,2.50
2023-08-08T05:59:26.544Z,2.80
2023-08-08T06:01:54.983Z,3.17
2023-08-08T06:04:23.383Z,3.35
2023-08-08T06:06:51.042Z,3.00
2023-08-08T06:09:18.521Z,2.80
2023-08-08T06:11:46.864Z,2.50
2023-08-08T06:14:14.456Z,2.63
2023-08-08T06:16:43.184Z,3.05
2023-08-08T06:19:11.719Z,2.42
2023-08-08T06:21:39.460Z,2.93
2023-08-08T06:24:07.230Z,2.60
2023-08-08T06:26:35.964Z,2.72
2023-08-08T06:29:03.609Z,2.57
2023-08-08T06:31:31.706Z,2.87
2023-08-08T06:33:59.985Z,2.85
2023-08-08T06:36:27.541Z,3.07
2023-08-08T06:38:55.484Z,2.87
2023-08-08T06:41:26.214Z,3.60
2023-08-08T06:43:53.835Z,3.70
2023-08-08T06:46:22.225Z,3.60
2023-08-08T06:48:52.334Z,4.00
2023-08-08T06:51:20.512Z,3.17
2023-08-08T06:53:48.413Z,3.45
2023-08-08T06:56:17.144Z,2.75
2023-08-08T06:58:47.051Z,2.85
2023-08-08T07:01:15.135Z,3.40
2023-08-08T07:03:44.852Z,2.10
2023-08-08T07:06:12.869Z,2.08
2023-08-08T07:08:43.699Z,1.65
2023-08-08T07:11:11.974Z,1.98
2023-08-08T07:13:39.428Z,2.37
2023-08-08T07:16:07.188Z,1.95
2023-08-08T07:18:38.141Z,1.83
2023-08-08T07:21:07.142Z,2.00
2023-08-08T07:23:35.293Z,2.15
2023-08-08T07:26:02.766Z,1.98
2023-08-08T07:28:30.341Z,2.17
2023-08-08T07:30:58.510Z,2.00
2023-08-08T07:33:26.104Z,1.70
2023-08-08T07:35:53.562Z,2.03
2023-08-08T07:38:21.759Z,1.90
2023-08-08T07:40:49.908Z,1.83
2023-08-08T07:43:17.422Z,1.42
2023-08-08T07:45:45.736Z,2.10
2023-08-08T07:48:14.271Z,1.77
2023-08-08T07:50:43.047Z,1.55
2023-08-08T07:53:11.550Z,1.55
2023-08-08T07:55:39.180Z,1.23
2023-08-08T07:58:07.018Z,1.70
2023-08-08T08:03:05.667Z,1.17
2023-08-08T08:05:35.954Z,1.20
2023-08-08T08:08:04.665Z,1.52
2023-08-08T08:10:32.465Z,1.53
2023-08-08T08:13:00.520Z,1.50
2023-08-08T08:15:29.509Z,1.33
2023-08-08T08:17:57.404Z,1.17
2023-08-08T08:20:26.504Z,0.95
2023-08-08T08:22:55.101Z,1.08
2023-08-08T08:25:22.899Z,1.02
2023-08-08T08:27:50.480Z,1.10
2023-08-08T08:30:20.135Z,0.77
2023-08-08T08:35:15.534Z,0.95
2023-08-08T08:37:44.664Z,1.58
2023-08-08T08:40:12.733Z,0.98
2023-08-08T08:42:44.838Z,1.15
2023-08-08T08:45:13.673Z,1.20
2023-08-08T08:47:44.871Z,1.23
2023-08-08T08:50:15.549Z,2.17
2023-08-08T08:52:44.461Z,0.80
2023-08-08T08:57:41.442Z,1.25
2023-08-08T09:00:09.506Z,1.25
2023-08-08T09:02:38.512Z,1.37
2023-08-08T09:05:07.244Z,0.90
2023-08-08T09:07:35.123Z,1.00
2023-08-08T09:10:02.764Z,1.45
2023-08-08T09:12:32.884Z,1.55
2023-08-08T09:15:00.549Z,1.30
2023-08-08T09:17:42.470Z,1.15
2023-08-08T09:20:18.405Z,1.42
2023-08-08T09:22:46.101Z,1.67
2023-08-08T09:25:13.789Z,1.45
2023-08-08T09:27:44.500Z,1.30
2023-08-08T09:30:13.573Z,1.85
2023-08-08T09:32:41.901Z,1.35
2023-08-08T09:35:11.116Z,1.65
2023-08-08T09:37:39.785Z,1.30
2023-08-08T09:40:09.483Z,1.50
2023-08-08T09:42:38.097Z,1.95
2023-08-08T09:45:18.409Z,1.60
2023-08-08T09:47:47.473Z,1.73
2023-08-08T09:50:22.428Z,1.70
2023-08-08T09:52:51.377Z,1.58
2023-08-08T09:55:20.427Z,1.40
2023-08-08T09:57:50.411Z,1.65
2023-08-08T10:00:22.507Z,1.40
2023-08-08T10:02:51.470Z,1.48
2023-08-08T10:07:47.685Z,1.35
2023-08-08T10:10:17.158Z,1.30
2023-08-08T10:12:45.274Z,1.50
2023-08-08T10:15:13.355Z,1.35
2023-08-08T10:17:44.182Z,1.37
2023-08-08T10:20:13.212Z,1.25
2023-08-08T10:22:48.155Z,1.00
2023-08-08T10:25:30.181Z,1.42
2023-08-08T10:28:15.929Z,1.20
2023-08-08T10:30:58.637Z,1.60
2023-08-08T10:33:29.286Z,1.40
2023-08-08T10:35:57.223Z,1.42
2023-08-08T10:38:51.339Z,1.23
2023-08-08T10:41:23.576Z,1.25
2023-08-08T10:43:57.425Z,1.42
2023-08-08T10:46:24.901Z,1.40
2023-08-08T10:48:54.558Z,1.10
2023-08-08T10:51:26.644Z,1.30
2023-08-08T10:53:54.693Z,1.33
2023-08-08T10:56:24.290Z,2.30
2023-08-08T10:58:52.099Z,1.33
2023-08-08T11:01:20.553Z,1.20
2023-08-08T11:03:51.010Z,1.20
2023-08-08T11:06:19.706Z,1.45
2023-08-08T11:08:48.103Z,1.58
2023-08-08T11:11:15.792Z,1.40
2023-08-08T11:13:43.472Z,1.50
2023-08-08T11:16:12.020Z,1.90
2023-08-08T11:18:39.683Z,1.20
2023-08-08T11:21:18.790Z,1.33
2023-08-08T11:23:48.934Z,1.48
2023-08-08T11:26:19.618Z,1.65
2023-08-08T11:28:54.281Z,1.70
2023-08-08T11:31:23.233Z,1.20
2023-08-08T11:33:51.381Z,1.30
2023-08-08T11:36:21.129Z,1.50
2023-08-08T11:38:50.145Z,1.42
2023-08-08T11:41:22.168Z,1.67
2023-08-08T11:43:50.271Z,1.50
2023-08-08T11:46:18.984Z,1.60
2023-08-08T11:48:50.229Z,1.98
2023-08-08T11:51:19.080Z,1.40
2023-08-08T11:53:54.106Z,1.45
2023-08-08T11:56:23.083Z,1.23
2023-08-08T11:58:55.212Z,1.50
2023-08-08T12:01:26.165Z,1.30
2023-08-08T12:03:55.537Z,1.30
2023-08-08T12:06:23.921Z,1.20
2023-08-08T12:08:51.890Z,1.00
2023-08-08T12:11:25.533Z,1.27
2023-08-08T12:14:01.183Z,1.35
2023-08-08T12:16:34.628Z,1.40
2023-08-08T12:19:04.715Z,1.33
2023-08-08T12:21:34.598Z,1.40
2023-08-08T12:24:02.191Z,1.60
2023-08-08T12:26:29.987Z,2.03
2023-08-08T12:28:58.016Z,1.70
2023-08-08T12:31:26.171Z,1.58
2023-08-08T12:33:57.234Z,1.52
2023-08-08T12:38:53.411Z,1.50
2023-08-08T12:41:21.241Z,1.33
2023-08-08T12:43:49.683Z,1.30
2023-08-08T12:46:17.581Z,1.40
2023-08-08T12:48:45.873Z,1.65
2023-08-08T12:51:14.044Z,1.35
2023-08-08T12:53:41.625Z,1.37
2023-08-08T12:56:09.441Z,1.40
2023-08-08T12:58:37.522Z,1.85
2023-08-08T13:01:04.991Z,1.30
2023-08-08T13:03:35.220Z,1.42
2023-08-08T13:06:03.456Z,1.60
2023-08-08T13:08:31.283Z,1.33
2023-08-08T13:10:59.295Z,1.40
2023-08-08T13:15:55.109Z,1.60
2023-08-08T13:18:23.259Z,1.37
2023-08-08T13:20:51.229Z,1.35
2023-08-08T13:23:19.593Z,1.33
2023-08-08T13:25:47.377Z,1.30
2023-08-08T13:28:16.090Z,1.77
2023-08-08T13:30:44.741Z,1.45
2023-08-08T13:33:12.662Z,1.40
2023-08-08T13:35:40.723Z,1.30
2023-08-08T13:38:09.523Z,1.42
2023-08-08T13:40:37.273Z,1.20
2023-08-08T13:43:05.408Z,1.20
2023-08-08T13:45:33.213Z,1.50
2023-08-08T13:48:01.217Z,1.20
2023-08-08T13:50:29.289Z,1.70
2023-08-08T13:52:57.118Z,1.40
2023-08-08T13:55:24.936Z,1.35
2023-08-08T13:57:52.910Z,1.02
2023-08-08T14:00:20.714Z,1.90
2023-08-08T14:02:50.089Z,1.35
2023-08-08T14:05:17.861Z,1.30
2023-08-08T14:07:46.089Z,1.50
2023-08-08T14:12:42.896Z,1.30
2023-08-08T14:15:10.733Z,1.48
2023-08-08T14:17:38.904Z,1.27
2023-08-08T14:20:07.305Z,1.27
2023-08-08T14:22:35.763Z,1.45
2023-08-08T14:25:04.134Z,1.60
2023-08-08T14:27:31.928Z,1.40
2023-08-08T14:30:00.064Z,1.50
2023-08-08T14:34:56.894Z,1.35
2023-08-08T14:37:26.989Z,1.37
2023-08-08T14:39:55.057Z,1.30
2023-08-08T14:42:22.969Z,1.50
2023-08-08T14:44:50.931Z,1.37
2023-08-08T14:47:18.988Z,1.42
2023-08-08T14:49:47.028Z,1.50
2023-08-08T14:52:15.156Z,1.48
2023-08-08T14:57:11.001Z,1.58
2023-08-08T14:59:38.946Z,1.48
2023-08-08T15:02:07.054Z,1.80
2023-08-08T15:04:35.505Z,1.60
2023-08-08T15:07:03.707Z,1.87
2023-08-08T15:09:32.300Z,1.50
2023-08-08T15:12:00.452Z,1.50
2023-08-08T15:14:28.469Z,1.87
2023-08-08T15:16:58.267Z,1.50
2023-08-08T15:19:26.756Z,1.80
2023-08-08T15:21:55.701Z,1.40
2023-08-08T15:24:23.825Z,1.40
2023-08-08T15:26:51.591Z,1.35
2023-08-08T15:29:19.819Z,1.37
2023-08-08T15:31:48.213Z,1.50
2023-08-08T15:36:43.670Z,1.77
2023-08-08T15:41:45.067Z,1.50
2023-08-08T15:44:14.005Z,1.50
2023-08-08T15:46:42.203Z,1.50
2023-08-08T15:49:13.529Z,1.30
2023-08-08T15:51:44.668Z,1.58
2023-08-08T15:54:27.869Z,1.10
2023-08-08T15:56:56.850Z,2.15
2023-08-08T15:59:24.787Z,1.40
2023-08-08T16:01:52.488Z,1.60
2023-08-08T16:04:24.744Z,1.10
2023-08-08T16:06:52.367Z,1.25
2023-08-08T16:09:20.572Z,1.50
2023-08-08T16:11:48.481Z,1.10
2023-08-08T16:14:16.281Z,1.55
2023-08-08T16:16:47.616Z,1.30
2023-08-08T16:19:16.911Z,1.33
2023-08-08T16:21:47.577Z,1.27
2023-08-08T16:24:15.606Z,1.30
2023-08-08T16:26:43.445Z,1.65
2023-08-08T16:29:11.000Z,1.27
2023-08-08T16:31:42.276Z,1.52
2023-08-08T16:34:10.262Z,1.30
2023-08-08T16:36:40.120Z,1.48
2023-08-08T16:39:18.264Z,1.45
2023-08-08T16:41:47.436Z,2.10
2023-08-08T16:44:17.417Z,1.50
2023-08-08T16:46:46.094Z,2.00
2023-08-08T16:49:14.180Z,1.50
2023-08-08T16:54:12.276Z,1.40
2023-08-08T16:56:39.961Z,1.50
2023-08-08T16:59:08.331Z,1.48
2023-08-08T17:01:38.158Z,1.30
2023-08-08T17:04:05.697Z,1.58
2023-08-08T17:06:37.182Z,1.50
2023-08-08T17:09:07.006Z,1.42
2023-08-08T17:11:35.861Z,1.35
2023-08-08T17:16:38.338Z,1.47
2023-08-08T17:19:09.827Z,1.27
2023-08-08T17:21:38.289Z,1.20
2023-08-08T17:24:14.409Z,1.40
2023-08-08T17:26:42.936Z,1.55
2023-08-08T17:29:12.074Z,1.40
2023-08-08T17:31:39.586Z,1.55
2023-08-08T17:34:17.088Z,1.80
2023-08-08T17:36:45.569Z,1.25
2023-08-08T17:39:14.741Z,1.30
2023-08-08T17:41:44.068Z,2.00
2023-08-08T17:44:12.791Z,1.35
2023-08-08T17:46:40.426Z,1.50
2023-08-08T17:49:08.237Z,1.42
2023-08-08T17:51:36.656Z,1.65
2023-08-08T17:54:04.727Z,1.30
2023-08-08T17:56:34.576Z,1.70
2023-08-08T17:59:06.812Z,1.30
2023-08-08T18:01:35.163Z,1.48
2023-08-08T18:04:05.678Z,1.10
2023-08-08T18:06:34.678Z,1.40
2023-08-08T18:09:04.374Z,1.50
2023-08-08T18:11:39.823Z,1.40
2023-08-08T18:14:09.822Z,1.60
2023-08-08T18:16:38.589Z,1.25
2023-08-08T18:19:07.364Z,1.20
2023-08-08T18:21:37.730Z,1.50
2023-08-08T18:24:09.463Z,1.80
2023-08-08T18:26:38.185Z,1.55
2023-08-08T18:29:06.197Z,1.77
2023-08-08T18:31:34.320Z,1.58
2023-08-08T18:34:03.413Z,1.52
2023-08-08T18:36:31.282Z,1.90
2023-08-08T18:38:59.175Z,2.40
2023-08-08T18:41:28.378Z,1.37
2023-08-08T18:46:24.176Z,1.40
2023-08-08T18:48:52.173Z,1.40
2023-08-08T18:51:19.728Z,1.48
2023-08-08T18:53:47.264Z,1.42
2023-08-08T18:56:15.276Z,1.50
2023-08-08T18:58:43.463Z,1.33
2023-08-08T19:01:11.240Z,1.40
2023-08-08T19:03:39.478Z,1.60
2023-08-08T19:06:07.054Z,1.70
2023-08-08T19:08:34.575Z,1.70
2023-08-08T19:11:04.121Z,1.35
2023-08-08T19:13:31.641Z,1.75
2023-08-08T19:15:59.190Z,1.33
2023-08-08T19:18:27.083Z,1.67
2023-08-08T19:20:54.674Z,1.70
2023-08-08T19:23:22.198Z,1.80
2023-08-08T19:25:50.642Z,1.45
2023-08-08T19:28:18.308Z,1.27
2023-08-08T19:30:45.801Z,1.70
2023-08-08T19:33:14.712Z,1.12
2023-08-08T19:38:10.101Z,1.50
2023-08-08T19:40:37.985Z,1.55
2023-08-08T19:43:05.441Z,1.60
2023-08-08T19:45:32.960Z,1.58
2023-08-08T19:48:00.870Z,1.37
2023-08-08T19:50:28.428Z,1.33
2023-08-08T19:52:56.407Z,1.65
2023-08-08T19:55:24.951Z,1.25
2023-08-08T19:57:52.596Z,1.50
2023-08-08T20:00:20.126Z,1.63
2023-08-08T20:02:47.947Z,1.70
2023-08-08T20:05:15.546Z,1.30
2023-08-08T20:07:43.067Z,1.30
2023-08-08T20:10:11.543Z,1.13
2023-08-08T20:12:39.129Z,1.70
2023-08-08T20:15:07.156Z,1.73
2023-08-08T20:17:35.276Z,1.40
2023-08-08T20:20:02.731Z,1.87
2023-08-08T20:22:30.592Z,1.97
2023-08-08T20:24:58.682Z,1.33
2023-08-08T20:27:26.101Z,1.90
2023-08-08T20:29:54.221Z,1.60
2023-08-08T20:32:22.080Z,1.52
2023-08-08T20:34:49.610Z,1.23
2023-08-08T20:37:18.722Z,1.37
2023-08-08T20:39:46.750Z,1.70
2023-08-08T20:42:14.376Z,1.60
2023-08-08T20:44:43.145Z,1.62
2023-08-08T20:47:10.875Z,1.83
2023-08-08T20:49:38.424Z,1.60
2023-08-08T20:52:06.427Z,1.40
2023-08-08T20:54:34.350Z,1.40
2023-08-08T20:57:01.958Z,1.60
2023-08-08T20:59:29.642Z,1.40
2023-08-08T21:01:58.159Z,1.73
2023-08-08T21:07:13.575Z,1.33
2023-08-08T21:09:42.529Z,1.53
2023-08-08T21:14:39.753Z,1.35
2023-08-08T21:17:07.334Z,1.75
2023-08-08T21:19:34.933Z,1.80
2023-08-08T21:22:02.820Z,2.13
2023-08-08T21:24:31.307Z,2.00
2023-08-08T21:26:58.646Z,2.05
2023-08-08T21:29:26.407Z,1.50
2023-08-08T21:31:54.490Z,1.40
2023-08-08T21:34:21.783Z,1.43
2023-08-08T21:36:51.227Z,1.90
2023-08-08T21:39:18.744Z,1.63
2023-08-08T21:41:46.194Z,1.57
2023-08-08T21:44:14.020Z,1.50
2023-08-08T21:46:41.562Z,1.57
2023-08-08T21:49:09.130Z,1.87
2023-08-08T21:51:36.957Z,1.60
2023-08-08T21:54:04.826Z,1.70
2023-08-08T21:56:32.177Z,1.57
2023-08-08T21:58:59.829Z,1.60
2023-08-08T22:01:27.140Z,1.60
2023-08-08T22:03:54.972Z,1.70
2023-08-08T22:06:22.583Z,1.33
2023-08-08T22:08:49.955Z,1.30
2023-08-08T22:11:18.241Z,1.87
2023-08-08T22:13:45.900Z,1.40
2023-08-08T22:16:13.717Z,1.40
2023-08-08T22:18:42.240Z,1.70
2023-08-08T22:21:09.748Z,1.65
2023-08-08T22:23:37.188Z,1.90
2023-08-08T22:26:05.015Z,1.77
2023-08-08T22:28:32.566Z,1.50
2023-08-08T22:31:00.187Z,1.60
2023-08-08T22:33:28.244Z,1.50
2023-08-08T22:35:55.765Z,2.40
2023-08-08T22:38:23.247Z,1.47
2023-08-08T22:40:51.055Z,1.73
2023-08-08T22:43:18.612Z,1.60
2023-08-08T22:45:46.204Z,1.50
2023-08-08T22:48:14.805Z,1.45
2023-08-08T22:50:43.987Z,1.30
2023-08-08T22:53:11.831Z,1.50
2023-08-08T22:55:39.989Z,1.25
2023-08-08T22:58:07.795Z,1.20
2023-08-08T23:00:36.727Z,1.55
2023-08-08T23:03:06.006Z,1.43
2023-08-08T23:05:33.549Z,1.57
2023-08-08T23:08:05.298Z,1.70
2023-08-08T23:10:33.361Z,1.50
2023-08-08T23:13:00.815Z,1.30
2023-08-08T23:15:28.405Z,1.40
2023-08-08T23:17:56.367Z,1.30
2023-08-08T23:20:24.254Z,1.50
2023-08-08T23:22:51.909Z,1.30
2023-08-08T23:25:23.415Z,1.40
2023-08-08T23:27:51.434Z,1.40
2023-08-08T23:30:19.456Z,1.20
2023-08-08T23:32:53.990Z,1.52
2023-08-08T23:35:22.804Z,1.33
2023-08-08T23:37:50.597Z,1.58
2023-08-08T23:40:18.289Z,1.40
2023-08-08T23:42:45.773Z,1.50
2023-08-08T23:45:14.721Z,1.23
2023-08-08T23:47:42.681Z,1.58
2023-08-08T23:50:10.477Z,1.40
2023-08-08T23:52:38.269Z,1.73
2023-08-08T23:55:06.047Z,1.77
2023-08-08T23:57:33.738Z,1.60
